createdAt,value
2023-05-01T00:02:46.341Z,69.70
2023-05-01T00:07:49.264Z,71.60
2023-05-01T00:12:51.415Z,71.40
2023-05-01T00:17:54.638Z,73.50
2023-05-01T00:22:57.971Z,67.30
2023-05-01T00:28:00.200Z,68.90
2023-05-01T00:33:02.514Z,70.10
2023-05-01T00:38:04.846Z,71.40
2023-05-01T00:43:07.057Z,74.00
2023-05-01T00:48:11.006Z,72.10
2023-05-01T00:53:13.484Z,71.70
2023-05-01T00:58:18.912Z,71.30
2023-05-01T01:03:21.749Z,73.50
2023-05-01T01:08:32.560Z,70.50
2023-05-01T01:13:54.933Z,71.20
2023-05-01T01:19:38.705Z,73.50
2023-05-01T01:24:59.336Z,75.20
2023-05-01T01:30:32.390Z,70.20
2023-05-01T01:35:37.011Z,72.10
2023-05-01T01:40:53.238Z,73.20
2023-05-01T01:46:03.829Z,72.80
2023-05-01T01:51:13.852Z,73.00
2023-05-01T01:56:20.796Z,75.50
2023-05-01T02:01:25.079Z,70.10
2023-05-01T02:06:29.932Z,70.10
2023-05-01T02:11:33.657Z,73.10
2023-05-01T02:16:37.534Z,75.70
2023-05-01T02:21:41.346Z,70.00
2023-05-01T02:26:49.772Z,70.80
2023-05-01T02:31:52.210Z,71.00
2023-05-01T02:36:54.574Z,73.20
2023-05-01T02:42:01.749Z,73.20
2023-05-01T02:47:07.299Z,74.30
2023-05-01T02:52:11.673Z,76.80
2023-05-01T02:57:14.308Z,71.60
2023-05-01T03:02:16.429Z,73.80
2023-05-01T03:07:18.654Z,73.00
2023-05-01T03:12:21.864Z,72.30
2023-05-01T03:17:24.033Z,76.80
2023-05-01T03:22:33.211Z,71.20
2023-05-01T03:27:35.574Z,72.80
2023-05-01T03:32:37.800Z,74.80
2023-05-01T03:37:42.208Z,74.40
2023-05-01T03:42:44.675Z,76.10
2023-05-01T03:47:54.989Z,73.20
2023-05-01T03:52:57.767Z,73.30
2023-05-01T03:57:59.969Z,75.50
2023-05-01T04:08:05.328Z,76.10
2023-05-01T04:13:07.654Z,76.50
2023-05-01T04:18:10.957Z,74.80
2023-05-01T04:23:13.109Z,79.00
2023-05-01T04:28:15.279Z,72.70
2023-05-01T04:33:17.568Z,73.70
2023-05-01T04:38:19.975Z,72.90
2023-05-01T04:43:24.153Z,75.60
2023-05-01T04:48:26.530Z,75.90
2023-05-01T04:53:29.378Z,75.80
2023-05-01T04:58:32.433Z,73.70
2023-05-01T05:03:41.285Z,74.20
2023-05-01T05:08:45.639Z,80.20
2023-05-01T05:13:48.157Z,72.90
2023-05-01T05:18:50.716Z,75.90
2023-05-01T05:23:54.128Z,72.70
2023-05-01T05:28:56.517Z,71.90
2023-05-01T05:33:58.926Z,71.20
2023-05-01T05:39:01.199Z,73.80
2023-05-01T05:44:03.766Z,73.20
2023-05-01T05:49:06.896Z,74.60
2023-05-01T05:54:09.166Z,74.10
2023-05-01T05:59:11.991Z,74.10
2023-05-01T06:04:17.016Z,79.60
2023-05-01T06:09:20.408Z,74.50
2023-05-01T06:14:22.878Z,74.20
2023-05-01T06:19:25.126Z,76.30
2023-05-01T06:24:36.274Z,76.20
2023-05-01T06:29:38.689Z,78.00
2023-05-01T06:34:40.996Z,76.50
2023-05-01T06:39:43.258Z,77.40
2023-05-01T06:44:45.598Z,76.10
2023-05-01T06:49:47.834Z,81.30
2023-05-01T06:54:49.992Z,74.40
2023-05-01T06:59:52.188Z,73.00
2023-05-01T07:04:54.532Z,73.20
2023-05-01T07:09:57.106Z,75.90
2023-05-01T07:15:00.026Z,78.00
2023-05-01T07:20:02.693Z,77.00
2023-05-01T07:25:05.686Z,76.80
2023-05-01T07:30:09.966Z,76.20
2023-05-01T07:35:12.498Z,76.60
2023-05-01T07:40:14.756Z,74.60
2023-05-01T07:45:17.078Z,75.10
2023-05-01T07:50:20.887Z,73.60
2023-05-01T07:55:23.986Z,72.60
2023-05-01T08:00:26.057Z,74.00
2023-05-01T08:05:28.194Z,73.50
2023-05-01T08:10:30.567Z,72.50
2023-05-01T08:15:32.723Z,75.10
2023-05-01T08:20:36.920Z,74.90
2023-05-01T08:25:39.055Z,74.80
2023-05-01T08:30:41.252Z,75.70
2023-05-01T08:35:43.659Z,76.50
2023-05-01T08:40:53.701Z,77.40
2023-05-01T08:45:59.393Z,75.70
2023-05-01T08:51:04.326Z,74.80
2023-05-01T08:56:08.519Z,74.20
2023-05-01T09:01:16.362Z,73.10
2023-05-01T09:06:20.321Z,72.70
2023-05-01T09:11:24.808Z,74.40
2023-05-01T09:16:27.374Z,71.00
2023-05-01T09:21:32.159Z,74.30
2023-05-01T09:26:37.086Z,70.70
2023-05-01T09:31:39.247Z,72.00
2023-05-01T09:36:47.740Z,69.60
2023-05-01T09:41:52.960Z,77.00
2023-05-01T09:46:55.586Z,73.20
2023-05-01T09:52:12.077Z,73.60
2023-05-01T09:57:14.305Z,70.90
2023-05-01T10:02:30.945Z,68.90
2023-05-01T10:07:34.435Z,69.50
2023-05-01T10:12:37.627Z,70.30
2023-05-01T10:17:41.892Z,68.30
2023-05-01T10:22:44.657Z,71.20
2023-05-01T10:27:48.685Z,70.00
2023-05-01T10:32:52.970Z,69.80
2023-05-01T10:38:07.259Z,70.80
2023-05-01T10:43:31.080Z,68.30
2023-05-01T10:48:42.633Z,66.00
2023-05-01T10:53:46.754Z,68.80
2023-05-01T10:59:06.604Z,64.70
2023-05-01T11:04:23.001Z,68.60
2023-05-01T11:09:49.566Z,65.10
2023-05-01T11:14:55.943Z,65.00
2023-05-01T11:19:58.800Z,69.10
2023-05-01T11:25:04.825Z,65.40
2023-05-01T11:30:08.209Z,68.50
2023-05-01T11:35:30.086Z,66.20
2023-05-01T11:40:35.248Z,65.30
2023-05-01T11:45:38.128Z,69.90
2023-05-01T11:50:40.270Z,69.30
2023-05-01T11:55:42.483Z,72.10
2023-05-01T12:00:44.759Z,70.70
2023-05-01T12:05:49.240Z,67.60
2023-05-01T12:10:59.057Z,72.80
2023-05-01T12:16:01.936Z,70.50
2023-05-01T12:21:04.116Z,70.00
2023-05-01T12:26:25.891Z,67.70
2023-05-01T12:31:29.764Z,69.70
2023-05-01T12:36:35.178Z,68.80
2023-05-01T12:41:46.910Z,64.70
2023-05-01T12:47:04.574Z,65.70
2023-05-01T12:52:09.565Z,69.00
2023-05-01T12:57:15.074Z,69.10
2023-05-01T13:02:18.652Z,68.90
2023-05-01T13:07:21.219Z,68.30
2023-05-01T13:12:25.359Z,68.40
2023-05-01T13:17:31.435Z,69.60
2023-05-01T13:22:36.157Z,70.20
2023-05-01T13:27:38.367Z,70.00
2023-05-01T13:32:42.528Z,70.50
2023-05-01T13:37:44.684Z,70.80
2023-05-01T13:42:48.488Z,71.10
2023-05-01T13:47:52.174Z,70.50
2023-05-01T13:52:54.360Z,67.80
2023-05-01T13:57:56.683Z,71.20
2023-05-01T14:02:59.989Z,71.30
2023-05-01T14:08:02.505Z,71.60
2023-05-01T14:13:05.298Z,68.20
2023-05-01T14:18:08.119Z,70.10
2023-05-01T14:23:10.926Z,71.70
2023-05-01T14:28:13.376Z,70.60
2023-05-01T14:33:16.354Z,67.10
2023-05-01T14:38:21.545Z,64.80
2023-05-01T14:43:23.679Z,63.10
2023-05-01T14:48:34.165Z,62.60
2023-05-01T14:53:36.470Z,62.20
2023-05-01T14:58:39.230Z,63.80
2023-05-01T15:03:43.949Z,70.20
2023-05-01T15:08:47.004Z,66.10
2023-05-01T15:13:50.627Z,64.00
2023-05-01T15:18:52.845Z,65.90
2023-05-01T15:23:55.255Z,68.60
2023-05-01T15:28:57.422Z,75.10
2023-05-01T15:33:59.583Z,84.10
2023-05-01T15:39:01.733Z,91.20
2023-05-01T15:44:06.039Z,91.10
2023-05-01T15:49:10.229Z,92.70
2023-05-01T15:54:12.400Z,94.50
2023-05-01T15:59:14.644Z,93.70
2023-05-01T16:04:16.846Z,92.60
2023-05-01T16:09:19.359Z,91.70
2023-05-01T16:14:21.808Z,91.10
2023-05-01T16:19:24.204Z,92.20
2023-05-01T16:24:26.631Z,93.80
2023-05-01T16:29:29.215Z,94.20
2023-05-01T16:34:31.504Z,95.70
2023-05-01T16:39:38.627Z,95.10
2023-05-01T16:44:41.674Z,97.30
2023-05-01T16:49:44.503Z,97.80
2023-05-01T16:54:46.673Z,95.70
2023-05-01T16:59:49.526Z,93.80
2023-05-01T17:04:52.017Z,91.30
2023-05-01T17:09:55.047Z,91.30
2023-05-01T17:14:57.340Z,91.00
2023-05-01T17:19:59.902Z,95.50
2023-05-01T17:25:04.043Z,96.50
2023-05-01T17:30:07.445Z,96.10
2023-05-01T17:35:10.043Z,95.40
2023-05-01T17:40:12.619Z,94.00
2023-05-01T17:45:14.926Z,95.00
2023-05-01T17:50:17.183Z,94.40
2023-05-01T17:55:19.637Z,93.60
2023-05-01T18:00:23.067Z,93.60
2023-05-01T18:05:25.528Z,91.80
2023-05-01T18:10:31.313Z,92.70
2023-05-01T18:15:33.691Z,92.60
2023-05-01T18:20:36.118Z,92.30
2023-05-01T18:25:39.504Z,92.20
2023-05-01T18:30:41.942Z,93.80
2023-05-01T18:35:44.124Z,92.90
2023-05-01T18:40:47.761Z,92.60
2023-05-01T18:45:49.961Z,91.70
2023-05-01T18:51:07.087Z,91.40
2023-05-01T18:56:09.780Z,92.20
2023-05-01T19:01:12.226Z,94.20
2023-05-01T19:06:14.483Z,95.00
2023-05-01T19:11:18.538Z,95.10
2023-05-01T19:16:20.834Z,96.20
2023-05-01T19:21:23.888Z,96.50
2023-05-01T19:26:26.428Z,97.70
2023-05-01T19:31:28.579Z,98.50
2023-05-01T19:36:30.850Z,98.60
2023-05-01T19:41:33.204Z,98.40
2023-05-01T19:46:35.433Z,98.60
2023-05-01T19:51:38.185Z,98.80
2023-05-01T19:56:40.471Z,97.90
2023-05-01T20:01:42.790Z,97.60
2023-05-01T20:06:45.137Z,98.10
2023-05-01T20:11:48.657Z,96.40
2023-05-01T20:16:52.389Z,94.20
2023-05-01T20:21:54.647Z,94.40
2023-05-01T20:26:58.348Z,92.70
2023-05-01T20:32:00.586Z,92.80
2023-05-01T20:37:03.204Z,92.00
2023-05-01T20:42:05.395Z,92.90
2023-05-01T20:47:07.749Z,92.70
2023-05-01T20:52:10.064Z,93.30
2023-05-01T20:57:12.197Z,94.20
2023-05-01T21:02:16.316Z,94.00
2023-05-01T21:07:18.772Z,93.20
2023-05-01T21:12:21.025Z,90.50
2023-05-01T21:17:23.364Z,92.60
2023-05-01T21:22:26.049Z,91.80
2023-05-01T21:27:28.519Z,93.20
2023-05-01T21:32:40.062Z,93.20
2023-05-01T21:37:43.899Z,91.50
2023-05-01T21:42:46.814Z,91.90
2023-05-01T21:47:51.607Z,91.30
2023-05-01T21:52:53.854Z,92.40
2023-05-01T21:57:58.203Z,91.00
2023-05-01T22:03:05.906Z,91.40
2023-05-01T22:08:08.168Z,92.00
2023-05-01T22:13:11.602Z,92.80
2023-05-01T22:18:17.798Z,93.30
2023-05-01T22:23:20.081Z,93.90
2023-05-01T22:28:22.814Z,91.40
2023-05-01T22:33:25.028Z,93.20
2023-05-01T22:38:27.173Z,92.80
2023-05-01T22:43:29.348Z,91.40
2023-05-01T22:48:32.379Z,92.20
2023-05-01T22:53:34.501Z,90.90
2023-05-01T22:58:37.205Z,91.10
2023-05-01T23:03:39.614Z,93.00
2023-05-01T23:08:41.884Z,94.30
2023-05-01T23:13:49.603Z,92.00
2023-05-01T23:18:52.428Z,93.40
2023-05-01T23:23:54.728Z,91.90
2023-05-01T23:28:57.185Z,91.70
2023-05-01T23:34:02.752Z,90.30
2023-05-01T23:39:05.134Z,91.80
2023-05-01T23:44:08.394Z,91.60
2023-05-01T23:49:10.720Z,91.70
2023-05-01T23:54:12.877Z,94.20
2023-05-01T23:59:15.207Z,91.80
